sensor_id;sensor_type;location;lat;lon;timestamp;temperature;humidity
5588;DHT22;2816;49.778;9.986;2023-04-25T00:00:48;9.70;99.90
5588;DHT22;2816;49.778;9.986;2023-04-25T00:03:15;9.70;99.90
5588;DHT22;2816;49.778;9.986;2023-04-25T00:05:44;9.70;99.90
5588;DHT22;2816;49.778;9.986;2023-04-25T00:08:12;9.60;99.90
5588;DHT22;2816;49.778;9.986;2023-04-25T00:10:38;9.50;99.90
5588;DHT22;2816;49.778;9.986;2023-04-25T00:13:05;9.60;99.90
5588;DHT22;2816;49.778;9.986;2023-04-25T00:15:35;9.60;99.90
5588;DHT22;2816;49.778;9.986;2023-04-25T00:18:03;9.60;99.90
5588;DHT22;2816;49.778;9.986;2023-04-25T00:20:31;9.60;99.90
5588;DHT22;2816;49.778;9.986;2023-04-25T00:22:58;9.60;99.90
5588;DHT22;2816;49.778;9.986;2023-04-25T00:25:25;9.60;99.90
5588;DHT22;2816;49.778;9.986;2023-04-25T00:27:52;9.60;99.90
5588;DHT22;2816;49.778;9.986;2023-04-25T00:30:18;9.60;99.90
5588;DHT22;2816;49.778;9.986;2023-04-25T00:32:47;9.60;99.90
5588;DHT22;2816;49.778;9.986;2023-04-25T00:35:14;9.60;99.90
5588;DHT22;2816;49.778;9.986;2023-04-25T00:37:41;9.40;99.90
5588;DHT22;2816;49.778;9.986;2023-04-25T00:40:09;9.40;99.90
5588;DHT22;2816;49.778;9.986;2023-04-25T00:42:36;9.50;99.90
5588;DHT22;2816;49.778;9.986;2023-04-25T00:45:05;9.80;99.90
5588;DHT22;2816;49.778;9.986;2023-04-25T00:47:33;9.90;99.90
5588;DHT22;2816;49.778;9.986;2023-04-25T00:50:04;9.90;99.90
5588;DHT22;2816;49.778;9.986;2023-04-25T00:52:31;9.90;99.90
5588;DHT22;2816;49.778;9.986;2023-04-25T00:54:59;9.90;99.90
5588;DHT22;2816;49.778;9.986;2023-04-25T00:57:26;9.70;99.90
5588;DHT22;2816;49.778;9.986;2023-04-25T00:59:54;9.60;99.90
5588;DHT22;2816;49.778;9.986;2023-04-25T01:02:21;9.50;99.90
5588;DHT22;2816;49.778;9.986;2023-04-25T01:04:48;9.40;99.90
5588;DHT22;2816;49.778;9.986;2023-04-25T01:07:17;9.30;99.90
5588;DHT22;2816;49.778;9.986;2023-04-25T01:09:44;9.30;99.90
5588;DHT22;2816;49.778;9.986;2023-04-25T01:12:11;9.20;99.90
5588;DHT22;2816;49.778;9.986;2023-04-25T01:14:38;9.20;99.90
5588;DHT22;2816;49.778;9.986;2023-04-25T01:17:05;9.10;99.90
5588;DHT22;2816;49.778;9.986;2023-04-25T01:19:33;9.10;99.90
5588;DHT22;2816;49.778;9.986;2023-04-25T01:22:02;9.10;99.90
5588;DHT22;2816;49.778;9.986;2023-04-25T01:24:29;9.10;99.90
5588;DHT22;2816;49.778;9.986;2023-04-25T01:26:56;9.10;99.90
5588;DHT22;2816;49.778;9.986;2023-04-25T01:29:24;9.10;99.90
5588;DHT22;2816;49.778;9.986;2023-04-25T01:31:52;9.10;99.90
5588;DHT22;2816;49.778;9.986;2023-04-25T01:34:19;8.90;99.90
5588;DHT22;2816;49.778;9.986;2023-04-25T01:36:47;8.90;99.90
5588;DHT22;2816;49.778;9.986;2023-04-25T01:39:17;8.90;99.90
5588;DHT22;2816;49.778;9.986;2023-04-25T01:41:44;8.90;99.90
5588;DHT22;2816;49.778;9.986;2023-04-25T01:44:12;8.80;99.90
5588;DHT22;2816;49.778;9.986;2023-04-25T01:46:39;8.80;99.90
5588;DHT22;2816;49.778;9.986;2023-04-25T01:49:06;8.90;99.90
5588;DHT22;2816;49.778;9.986;2023-04-25T01:51:33;8.80;99.90
5588;DHT22;2816;49.778;9.986;2023-04-25T01:54:00;8.60;99.90
5588;DHT22;2816;49.778;9.986;2023-04-25T01:56:31;8.50;99.90
5588;DHT22;2816;49.778;9.986;2023-04-25T01:58:58;8.50;99.90
5588;DHT22;2816;49.778;9.986;2023-04-25T02:01:25;8.50;99.90
5588;DHT22;2816;49.778;9.986;2023-04-25T02:03:52;8.50;99.90
5588;DHT22;2816;49.778;9.986;2023-04-25T02:06:19;8.40;99.90
5588;DHT22;2816;49.778;9.986;2023-04-25T02:08:46;8.40;99.90
5588;DHT22;2816;49.778;9.986;2023-04-25T02:11:13;8.50;99.90
5588;DHT22;2816;49.778;9.986;2023-04-25T02:13:41;8.40;99.90
5588;DHT22;2816;49.778;9.986;2023-04-25T02:16:08;8.40;99.90
5588;DHT22;2816;49.778;9.986;2023-04-25T02:18:35;8.30;99.90
5588;DHT22;2816;49.778;9.986;2023-04-25T02:21:03;8.20;99.90
5588;DHT22;2816;49.778;9.986;2023-04-25T02:23:30;8.20;99.90
5588;DHT22;2816;49.778;9.986;2023-04-25T02:25:57;8.30;99.90
5588;DHT22;2816;49.778;9.986;2023-04-25T02:28:24;8.40;99.90
5588;DHT22;2816;49.778;9.986;2023-04-25T02:30:53;8.40;99.90
5588;DHT22;2816;49.778;9.986;2023-04-25T02:33:20;8.40;99.90
5588;DHT22;2816;49.778;9.986;2023-04-25T02:35:47;8.10;99.90
5588;DHT22;2816;49.778;9.986;2023-04-25T02:38:14;8.10;99.90
5588;DHT22;2816;49.778;9.986;2023-04-25T02:40:41;8.10;99.90
5588;DHT22;2816;49.778;9.986;2023-04-25T02:43:08;8.10;99.90
5588;DHT22;2816;49.778;9.986;2023-04-25T02:45:35;8.20;99.90
5588;DHT22;2816;49.778;9.986;2023-04-25T02:48:05;8.30;99.90
5588;DHT22;2816;49.778;9.986;2023-04-25T02:50:32;8.20;99.90
5588;DHT22;2816;49.778;9.986;2023-04-25T02:52:59;8.10;99.90
5588;DHT22;2816;49.778;9.986;2023-04-25T02:55:26;8.10;99.90
5588;DHT22;2816;49.778;9.986;2023-04-25T02:57:53;8.00;99.90
5588;DHT22;2816;49.778;9.986;2023-04-25T03:00:21;8.10;99.90
5588;DHT22;2816;49.778;9.986;2023-04-25T03:02:48;8.20;99.90
5588;DHT22;2816;49.778;9.986;2023-04-25T03:05:16;8.30;99.90
5588;DHT22;2816;49.778;9.986;2023-04-25T03:07:43;8.20;99.90
5588;DHT22;2816;49.778;9.986;2023-04-25T03:10:12;8.10;99.90
5588;DHT22;2816;49.778;9.986;2023-04-25T03:12:38;8.20;99.90
5588;DHT22;2816;49.778;9.986;2023-04-25T03:15:06;8.00;99.90
5588;DHT22;2816;49.778;9.986;2023-04-25T03:17:33;8.00;99.90
5588;DHT22;2816;49.778;9.986;2023-04-25T03:20:01;8.10;99.90
5588;DHT22;2816;49.778;9.986;2023-04-25T03:22:31;8.00;99.90
5588;DHT22;2816;49.778;9.986;2023-04-25T03:24:58;7.90;99.90
5588;DHT22;2816;49.778;9.986;2023-04-25T03:27:24;8.00;99.90
5588;DHT22;2816;49.778;9.986;2023-04-25T03:29:51;8.00;99.90
5588;DHT22;2816;49.778;9.986;2023-04-25T03:32:18;8.00;99.90
5588;DHT22;2816;49.778;9.986;2023-04-25T03:34:45;8.10;99.90
5588;DHT22;2816;49.778;9.986;2023-04-25T03:37:12;8.00;99.90
5588;DHT22;2816;49.778;9.986;2023-04-25T03:39:40;8.00;99.90
5588;DHT22;2816;49.778;9.986;2023-04-25T03:42:07;7.90;99.90
5588;DHT22;2816;49.778;9.986;2023-04-25T03:44:34;7.90;99.90
5588;DHT22;2816;49.778;9.986;2023-04-25T03:47:01;8.00;99.90
5588;DHT22;2816;49.778;9.986;2023-04-25T03:49:28;8.10;99.90
5588;DHT22;2816;49.778;9.986;2023-04-25T03:51:55;7.90;99.90
5588;DHT22;2816;49.778;9.986;2023-04-25T03:54:21;7.80;99.90
5588;DHT22;2816;49.778;9.986;2023-04-25T03:56:50;7.80;99.90
5588;DHT22;2816;49.778;9.986;2023-04-25T03:59:17;7.70;99.90
5588;DHT22;2816;49.778;9.986;2023-04-25T04:01:44;7.70;99.90
5588;DHT22;2816;49.778;9.986;2023-04-25T04:04:10;7.80;99.90
5588;DHT22;2816;49.778;9.986;2023-04-25T04:06:37;7.70;99.90
5588;DHT22;2816;49.778;9.986;2023-04-25T04:09:04;7.60;99.90
5588;DHT22;2816;49.778;9.986;2023-04-25T04:11:35;7.70;99.90
5588;DHT22;2816;49.778;9.986;2023-04-25T04:14:05;7.60;99.90
5588;DHT22;2816;49.778;9.986;2023-04-25T04:16:32;7.80;99.90
5588;DHT22;2816;49.778;9.986;2023-04-25T04:18:59;7.80;99.90
5588;DHT22;2816;49.778;9.986;2023-04-25T04:21:26;7.80;99.90
5588;DHT22;2816;49.778;9.986;2023-04-25T04:23:53;7.90;99.90
5588;DHT22;2816;49.778;9.986;2023-04-25T04:26:21;8.00;99.90
5588;DHT22;2816;49.778;9.986;2023-04-25T04:28:49;8.00;99.90
5588;DHT22;2816;49.778;9.986;2023-04-25T04:31:18;7.90;99.90
5588;DHT22;2816;49.778;9.986;2023-04-25T04:33:45;7.90;99.90
5588;DHT22;2816;49.778;9.986;2023-04-25T04:36:12;7.90;99.90
5588;DHT22;2816;49.778;9.986;2023-04-25T04:38:39;7.90;99.90
5588;DHT22;2816;49.778;9.986;2023-04-25T04:41:08;7.80;99.90
5588;DHT22;2816;49.778;9.986;2023-04-25T04:43:35;7.70;99.90
5588;DHT22;2816;49.778;9.986;2023-04-25T04:46:02;7.80;99.90
5588;DHT22;2816;49.778;9.986;2023-04-25T04:48:31;7.70;99.90
5588;DHT22;2816;49.778;9.986;2023-04-25T04:50:59;7.70;99.90
5588;DHT22;2816;49.778;9.986;2023-04-25T04:53:26;7.70;99.90
5588;DHT22;2816;49.778;9.986;2023-04-25T04:55:54;7.70;99.90
5588;DHT22;2816;49.778;9.986;2023-04-25T04:58:21;7.70;99.90
5588;DHT22;2816;49.778;9.986;2023-04-25T05:00:48;7.70;99.90
5588;DHT22;2816;49.778;9.986;2023-04-25T05:03:15;7.80;99.90
5588;DHT22;2816;49.778;9.986;2023-04-25T05:05:43;7.80;99.90
5588;DHT22;2816;49.778;9.986;2023-04-25T05:08:11;7.70;99.90
5588;DHT22;2816;49.778;9.986;2023-04-25T05:10:38;7.70;99.90
5588;DHT22;2816;49.778;9.986;2023-04-25T05:13:05;7.70;99.90
5588;DHT22;2816;49.778;9.986;2023-04-25T05:15:32;7.70;99.90
5588;DHT22;2816;49.778;9.986;2023-04-25T05:17:58;7.70;99.90
5588;DHT22;2816;49.778;9.986;2023-04-25T05:20:25;7.70;99.90
5588;DHT22;2816;49.778;9.986;2023-04-25T05:22:54;7.70;99.90
5588;DHT22;2816;49.778;9.986;2023-04-25T05:25:21;7.80;99.90
5588;DHT22;2816;49.778;9.986;2023-04-25T05:27:48;7.90;99.90
5588;DHT22;2816;49.778;9.986;2023-04-25T05:30:16;8.00;99.90
5588;DHT22;2816;49.778;9.986;2023-04-25T05:32:43;8.00;99.90
5588;DHT22;2816;49.778;9.986;2023-04-25T05:35:10;8.10;99.90
5588;DHT22;2816;49.778;9.986;2023-04-25T05:37:37;8.00;99.90
5588;DHT22;2816;49.778;9.986;2023-04-25T05:40:07;8.10;99.90
5588;DHT22;2816;49.778;9.986;2023-04-25T05:42:35;7.90;99.90
5588;DHT22;2816;49.778;9.986;2023-04-25T05:45:02;8.00;99.90
5588;DHT22;2816;49.778;9.986;2023-04-25T05:47:30;7.90;99.90
5588;DHT22;2816;49.778;9.986;2023-04-25T05:49:56;7.90;99.90
5588;DHT22;2816;49.778;9.986;2023-04-25T05:52:23;7.90;99.90
5588;DHT22;2816;49.778;9.986;2023-04-25T05:54:50;7.80;99.90
5588;DHT22;2816;49.778;9.986;2023-04-25T05:57:24;7.90;99.90
5588;DHT22;2816;49.778;9.986;2023-04-25T05:59:52;7.90;99.90
5588;DHT22;2816;49.778;9.986;2023-04-25T06:02:20;7.90;99.90
5588;DHT22;2816;49.778;9.986;2023-04-25T06:04:47;7.90;99.90
5588;DHT22;2816;49.778;9.986;2023-04-25T06:07:14;7.80;99.90
5588;DHT22;2816;49.778;9.986;2023-04-25T06:09:41;8.00;99.90
5588;DHT22;2816;49.778;9.986;2023-04-25T06:12:08;8.00;99.90
5588;DHT22;2816;49.778;9.986;2023-04-25T06:14:36;8.00;99.90
5588;DHT22;2816;49.778;9.986;2023-04-25T06:17:04;8.00;99.90
5588;DHT22;2816;49.778;9.986;2023-04-25T06:19:34;8.10;99.90
5588;DHT22;2816;49.778;9.986;2023-04-25T06:22:02;8.10;99.90
5588;DHT22;2816;49.778;9.986;2023-04-25T06:24:29;8.00;99.90
5588;DHT22;2816;49.778;9.986;2023-04-25T06:26:55;8.20;99.90
5588;DHT22;2816;49.778;9.986;2023-04-25T06:29:22;8.40;99.90
5588;DHT22;2816;49.778;9.986;2023-04-25T06:31:51;8.30;99.90
5588;DHT22;2816;49.778;9.986;2023-04-25T06:34:18;8.30;99.90
5588;DHT22;2816;49.778;9.986;2023-04-25T06:36:45;8.30;99.90
5588;DHT22;2816;49.778;9.986;2023-04-25T06:39:11;8.40;99.90
5588;DHT22;2816;49.778;9.986;2023-04-25T06:41:38;8.50;99.90
5588;DHT22;2816;49.778;9.986;2023-04-25T06:44:05;8.30;99.90
5588;DHT22;2816;49.778;9.986;2023-04-25T06:46:32;8.40;99.90
5588;DHT22;2816;49.778;9.986;2023-04-25T06:49:00;8.40;99.90
5588;DHT22;2816;49.778;9.986;2023-04-25T06:51:27;8.50;99.90
5588;DHT22;2816;49.778;9.986;2023-04-25T06:53:56;8.70;99.90
5588;DHT22;2816;49.778;9.986;2023-04-25T06:56:23;8.80;99.90
5588;DHT22;2816;49.778;9.986;2023-04-25T06:58:49;8.90;99.90
5588;DHT22;2816;49.778;9.986;2023-04-25T07:01:16;8.90;99.90
5588;DHT22;2816;49.778;9.986;2023-04-25T07:03:43;8.60;99.90
5588;DHT22;2816;49.778;9.986;2023-04-25T07:06:12;8.60;99.90
5588;DHT22;2816;49.778;9.986;2023-04-25T07:08:38;8.60;99.90
5588;DHT22;2816;49.778;9.986;2023-04-25T07:11:05;8.50;99.90
5588;DHT22;2816;49.778;9.986;2023-04-25T07:13:32;8.70;99.90
5588;DHT22;2816;49.778;9.986;2023-04-25T07:15:59;9.00;99.90
5588;DHT22;2816;49.778;9.986;2023-04-25T07:18:26;8.80;99.90
5588;DHT22;2816;49.778;9.986;2023-04-25T07:20:53;8.90;99.90
5588;DHT22;2816;49.778;9.986;2023-04-25T07:23:22;8.80;99.90
5588;DHT22;2816;49.778;9.986;2023-04-25T07:25:48;8.60;99.90
5588;DHT22;2816;49.778;9.986;2023-04-25T07:28:15;8.80;99.90
5588;DHT22;2816;49.778;9.986;2023-04-25T07:30:43;8.60;99.90
5588;DHT22;2816;49.778;9.986;2023-04-25T07:33:10;8.60;99.90
5588;DHT22;2816;49.778;9.986;2023-04-25T07:35:37;8.50;99.90
5588;DHT22;2816;49.778;9.986;2023-04-25T07:38:04;8.60;99.90
5588;DHT22;2816;49.778;9.986;2023-04-25T07:40:33;8.50;99.90
5588;DHT22;2816;49.778;9.986;2023-04-25T07:43:00;8.70;99.90
5588;DHT22;2816;49.778;9.986;2023-04-25T07:45:27;8.60;99.90
5588;DHT22;2816;49.778;9.986;2023-04-25T07:47:54;8.50;99.90
5588;DHT22;2816;49.778;9.986;2023-04-25T07:50:21;8.50;99.90
5588;DHT22;2816;49.778;9.986;2023-04-25T07:52:48;8.50;99.90
5588;DHT22;2816;49.778;9.986;2023-04-25T07:55:15;8.60;99.90
5588;DHT22;2816;49.778;9.986;2023-04-25T07:57:43;8.80;99.90
5588;DHT22;2816;49.778;9.986;2023-04-25T08:00:11;8.70;99.90
5588;DHT22;2816;49.778;9.986;2023-04-25T08:02:38;8.80;99.90
5588;DHT22;2816;49.778;9.986;2023-04-25T08:05:06;8.80;99.90
5588;DHT22;2816;49.778;9.986;2023-04-25T08:07:33;9.10;99.90
5588;DHT22;2816;49.778;9.986;2023-04-25T08:10:00;9.00;99.90
5588;DHT22;2816;49.778;9.986;2023-04-25T08:12:28;9.10;99.90
5588;DHT22;2816;49.778;9.986;2023-04-25T08:14:56;9.30;99.90
5588;DHT22;2816;49.778;9.986;2023-04-25T08:17:23;9.20;99.90
5588;DHT22;2816;49.778;9.986;2023-04-25T08:19:50;9.40;99.90
5588;DHT22;2816;49.778;9.986;2023-04-25T08:22:17;9.40;99.90
5588;DHT22;2816;49.778;9.986;2023-04-25T08:24:44;9.60;99.90
5588;DHT22;2816;49.778;9.986;2023-04-25T08:27:11;9.70;99.90
5588;DHT22;2816;49.778;9.986;2023-04-25T08:29:38;9.90;99.90
5588;DHT22;2816;49.778;9.986;2023-04-25T08:32:06;9.90;99.90
5588;DHT22;2816;49.778;9.986;2023-04-25T08:34:33;10.00;99.90
5588;DHT22;2816;49.778;9.986;2023-04-25T08:37:00;10.00;99.90
5588;DHT22;2816;49.778;9.986;2023-04-25T08:39:27;9.90;99.90
5588;DHT22;2816;49.778;9.986;2023-04-25T08:41:54;10.00;99.90
5588;DHT22;2816;49.778;9.986;2023-04-25T08:44:21;9.90;99.90
5588;DHT22;2816;49.778;9.986;2023-04-25T08:46:49;10.00;99.90
5588;DHT22;2816;49.778;9.986;2023-04-25T08:49:17;10.00;99.90
5588;DHT22;2816;49.778;9.986;2023-04-25T08:51:46;9.80;99.90
5588;DHT22;2816;49.778;9.986;2023-04-25T08:54:15;9.80;99.90
5588;DHT22;2816;49.778;9.986;2023-04-25T08:56:44;10.00;99.90
5588;DHT22;2816;49.778;9.986;2023-04-25T08:59:12;10.20;99.90
5588;DHT22;2816;49.778;9.986;2023-04-25T09:01:39;10.30;99.90
5588;DHT22;2816;49.778;9.986;2023-04-25T09:04:06;10.40;99.90
5588;DHT22;2816;49.778;9.986;2023-04-25T09:06:35;10.40;99.90
5588;DHT22;2816;49.778;9.986;2023-04-25T09:09:03;10.30;99.90
5588;DHT22;2816;49.778;9.986;2023-04-25T09:11:31;10.40;99.90
5588;DHT22;2816;49.778;9.986;2023-04-25T09:14:13;10.50;99.90
5588;DHT22;2816;49.778;9.986;2023-04-25T09:17:03;10.40;99.90
5588;DHT22;2816;49.778;9.986;2023-04-25T09:19:31;10.50;99.90
5588;DHT22;2816;49.778;9.986;2023-04-25T09:22:03;10.50;99.90
5588;DHT22;2816;49.778;9.986;2023-04-25T09:24:35;10.60;99.90
5588;DHT22;2816;49.778;9.986;2023-04-25T09:27:05;10.60;99.90
5588;DHT22;2816;49.778;9.986;2023-04-25T09:29:33;10.60;99.90
5588;DHT22;2816;49.778;9.986;2023-04-25T09:32:15;10.90;99.90
5588;DHT22;2816;49.778;9.986;2023-04-25T09:34:43;10.80;99.90
5588;DHT22;2816;49.778;9.986;2023-04-25T09:37:12;11.00;99.90
5588;DHT22;2816;49.778;9.986;2023-04-25T09:39:39;11.00;99.90
5588;DHT22;2816;49.778;9.986;2023-04-25T09:42:07;11.10;99.90
5588;DHT22;2816;49.778;9.986;2023-04-25T09:44:36;11.10;99.90
5588;DHT22;2816;49.778;9.986;2023-04-25T09:47:03;10.90;99.90
5588;DHT22;2816;49.778;9.986;2023-04-25T09:49:30;10.90;99.90
5588;DHT22;2816;49.778;9.986;2023-04-25T09:51:57;11.00;99.90
5588;DHT22;2816;49.778;9.986;2023-04-25T09:54:26;11.10;99.90
5588;DHT22;2816;49.778;9.986;2023-04-25T09:56:53;11.10;99.90
5588;DHT22;2816;49.778;9.986;2023-04-25T09:59:21;11.20;99.90
5588;DHT22;2816;49.778;9.986;2023-04-25T10:01:49;11.20;99.90
5588;DHT22;2816;49.778;9.986;2023-04-25T10:04:20;11.00;99.90
5588;DHT22;2816;49.778;9.986;2023-04-25T10:06:49;10.90;99.90
5588;DHT22;2816;49.778;9.986;2023-04-25T10:09:20;11.20;99.90
5588;DHT22;2816;49.778;9.986;2023-04-25T10:11:49;10.90;99.90
5588;DHT22;2816;49.778;9.986;2023-04-25T10:14:17;11.10;99.90
5588;DHT22;2816;49.778;9.986;2023-04-25T10:16:45;10.90;99.90
5588;DHT22;2816;49.778;9.986;2023-04-25T10:19:13;10.80;99.90
5588;DHT22;2816;49.778;9.986;2023-04-25T10:21:46;10.90;99.90
5588;DHT22;2816;49.778;9.986;2023-04-25T10:24:13;11.00;99.90
5588;DHT22;2816;49.778;9.986;2023-04-25T10:26:41;11.00;99.90
5588;DHT22;2816;49.778;9.986;2023-04-25T10:29:09;11.20;99.90
5588;DHT22;2816;49.778;9.986;2023-04-25T10:31:45;11.20;99.90
5588;DHT22;2816;49.778;9.986;2023-04-25T10:34:12;11.20;99.90
5588;DHT22;2816;49.778;9.986;2023-04-25T10:36:39;11.40;99.90
5588;DHT22;2816;49.778;9.986;2023-04-25T10:39:07;11.60;99.90
5588;DHT22;2816;49.778;9.986;2023-04-25T10:41:46;11.30;99.90
5588;DHT22;2816;49.778;9.986;2023-04-25T10:44:14;11.30;99.90
5588;DHT22;2816;49.778;9.986;2023-04-25T10:46:44;11.60;99.90
5588;DHT22;2816;49.778;9.986;2023-04-25T10:49:28;11.60;99.90
5588;DHT22;2816;49.778;9.986;2023-04-25T10:52:11;11.70;99.90
5588;DHT22;2816;49.778;9.986;2023-04-25T10:54:46;11.90;99.90
5588;DHT22;2816;49.778;9.986;2023-04-25T10:57:45;12.10;99.90
5588;DHT22;2816;49.778;9.986;2023-04-25T11:00:17;12.10;99.40
5588;DHT22;2816;49.778;9.986;2023-04-25T11:02:46;12.00;99.80
5588;DHT22;2816;49.778;9.986;2023-04-25T11:05:22;12.00;99.90
5588;DHT22;2816;49.778;9.986;2023-04-25T11:07:51;12.10;99.50
5588;DHT22;2816;49.778;9.986;2023-04-25T11:10:20;11.80;99.20
5588;DHT22;2816;49.778;9.986;2023-04-25T11:12:48;12.00;99.60
5588;DHT22;2816;49.778;9.986;2023-04-25T11:15:17;12.20;99.90
5588;DHT22;2816;49.778;9.986;2023-04-25T11:17:43;11.90;98.60
5588;DHT22;2816;49.778;9.986;2023-04-25T11:20:12;11.90;99.10
5588;DHT22;2816;49.778;9.986;2023-04-25T11:22:40;11.90;99.90
5588;DHT22;2816;49.778;9.986;2023-04-25T11:25:09;11.70;99.50
5588;DHT22;2816;49.778;9.986;2023-04-25T11:27:38;11.70;99.90
5588;DHT22;2816;49.778;9.986;2023-04-25T11:30:13;11.60;99.10
5588;DHT22;2816;49.778;9.986;2023-04-25T11:32:42;11.50;99.40
5588;DHT22;2816;49.778;9.986;2023-04-25T11:35:09;11.60;99.60
5588;DHT22;2816;49.778;9.986;2023-04-25T11:37:38;11.50;99.90
5588;DHT22;2816;49.778;9.986;2023-04-25T11:40:07;11.70;99.80
5588;DHT22;2816;49.778;9.986;2023-04-25T11:42:36;11.40;98.60
5588;DHT22;2816;49.778;9.986;2023-04-25T11:45:04;11.40;99.00
5588;DHT22;2816;49.778;9.986;2023-04-25T11:47:32;11.40;99.30
5588;DHT22;2816;49.778;9.986;2023-04-25T11:50:01;11.50;99.30
5588;DHT22;2816;49.778;9.986;2023-04-25T11:52:38;11.60;98.90
5588;DHT22;2816;49.778;9.986;2023-04-25T11:55:07;11.70;99.20
5588;DHT22;2816;49.778;9.986;2023-04-25T11:57:35;11.60;99.90
5588;DHT22;2816;49.778;9.986;2023-04-25T12:00:07;11.50;99.10
5588;DHT22;2816;49.778;9.986;2023-04-25T12:02:36;11.40;98.70
5588;DHT22;2816;49.778;9.986;2023-04-25T12:05:07;11.50;98.60
5588;DHT22;2816;49.778;9.986;2023-04-25T12:07:35;11.60;99.90
5588;DHT22;2816;49.778;9.986;2023-04-25T12:10:07;11.90;99.70
5588;DHT22;2816;49.778;9.986;2023-04-25T12:12:34;11.80;98.20
5588;DHT22;2816;49.778;9.986;2023-04-25T12:15:12;11.70;98.90
5588;DHT22;2816;49.778;9.986;2023-04-25T12:17:41;11.90;98.50
5588;DHT22;2816;49.778;9.986;2023-04-25T12:20:13;11.80;99.90
5588;DHT22;2816;49.778;9.986;2023-04-25T12:22:41;11.70;98.00
5588;DHT22;2816;49.778;9.986;2023-04-25T12:25:10;11.60;99.10
5588;DHT22;2816;49.778;9.986;2023-04-25T12:27:38;11.90;99.90
5588;DHT22;2816;49.778;9.986;2023-04-25T12:30:09;12.00;98.20
5588;DHT22;2816;49.778;9.986;2023-04-25T12:32:37;11.90;98.00
5588;DHT22;2816;49.778;9.986;2023-04-25T12:35:05;11.90;98.00
5588;DHT22;2816;49.778;9.986;2023-04-25T12:37:33;11.70;99.80
5588;DHT22;2816;49.778;9.986;2023-04-25T12:40:00;11.40;98.90
5588;DHT22;2816;49.778;9.986;2023-04-25T12:42:28;11.40;99.20
5588;DHT22;2816;49.778;9.986;2023-04-25T12:44:55;11.40;99.90
5588;DHT22;2816;49.778;9.986;2023-04-25T12:47:22;11.40;99.90
5588;DHT22;2816;49.778;9.986;2023-04-25T12:49:49;11.20;99.90
5588;DHT22;2816;49.778;9.986;2023-04-25T12:52:16;11.30;99.90
5588;DHT22;2816;49.778;9.986;2023-04-25T12:54:44;11.50;99.90
5588;DHT22;2816;49.778;9.986;2023-04-25T12:57:11;11.30;99.40
5588;DHT22;2816;49.778;9.986;2023-04-25T12:59:38;11.30;99.90
5588;DHT22;2816;49.778;9.986;2023-04-25T13:02:05;11.10;99.90
5588;DHT22;2816;49.778;9.986;2023-04-25T13:04:32;11.20;99.90
5588;DHT22;2816;49.778;9.986;2023-04-25T13:06:58;11.30;99.90
5588;DHT22;2816;49.778;9.986;2023-04-25T13:09:25;11.30;99.90
5588;DHT22;2816;49.778;9.986;2023-04-25T13:11:54;11.40;99.90
5588;DHT22;2816;49.778;9.986;2023-04-25T13:14:21;11.40;99.90
5588;DHT22;2816;49.778;9.986;2023-04-25T13:16:48;11.60;99.90
5588;DHT22;2816;49.778;9.986;2023-04-25T13:19:15;11.70;99.90
5588;DHT22;2816;49.778;9.986;2023-04-25T13:21:42;11.60;99.90
5588;DHT22;2816;49.778;9.986;2023-04-25T13:24:09;11.60;99.90
5588;DHT22;2816;49.778;9.986;2023-04-25T13:26:36;11.50;99.60
5588;DHT22;2816;49.778;9.986;2023-04-25T13:29:04;11.50;99.80
5588;DHT22;2816;49.778;9.986;2023-04-25T13:31:31;11.40;99.80
5588;DHT22;2816;49.778;9.986;2023-04-25T13:33:58;11.30;99.90
5588;DHT22;2816;49.778;9.986;2023-04-25T13:36:25;11.30;99.90
5588;DHT22;2816;49.778;9.986;2023-04-25T13:38:53;11.10;99.90
5588;DHT22;2816;49.778;9.986;2023-04-25T13:41:20;11.00;99.90
5588;DHT22;2816;49.778;9.986;2023-04-25T13:43:47;11.00;99.90
5588;DHT22;2816;49.778;9.986;2023-04-25T13:46:15;11.00;99.90
5588;DHT22;2816;49.778;9.986;2023-04-25T13:48:42;11.10;99.90
5588;DHT22;2816;49.778;9.986;2023-04-25T13:51:13;11.00;99.90
5588;DHT22;2816;49.778;9.986;2023-04-25T13:53:41;11.00;99.90
5588;DHT22;2816;49.778;9.986;2023-04-25T13:56:08;11.20;99.90
5588;DHT22;2816;49.778;9.986;2023-04-25T13:58:35;11.30;99.90
5588;DHT22;2816;49.778;9.986;2023-04-25T14:01:02;11.60;99.90
5588;DHT22;2816;49.778;9.986;2023-04-25T14:03:30;11.50;99.90
5588;DHT22;2816;49.778;9.986;2023-04-25T14:05:57;11.50;99.90
5588;DHT22;2816;49.778;9.986;2023-04-25T14:08:24;11.40;99.90
5588;DHT22;2816;49.778;9.986;2023-04-25T14:10:51;11.30;99.90
5588;DHT22;2816;49.778;9.986;2023-04-25T14:13:18;11.40;99.90
5588;DHT22;2816;49.778;9.986;2023-04-25T14:15:45;11.40;99.90
5588;DHT22;2816;49.778;9.986;2023-04-25T14:18:12;11.20;99.90
5588;DHT22;2816;49.778;9.986;2023-04-25T14:20:40;11.00;99.90
5588;DHT22;2816;49.778;9.986;2023-04-25T14:23:07;11.00;99.90
5588;DHT22;2816;49.778;9.986;2023-04-25T14:25:34;10.90;99.90
5588;DHT22;2816;49.778;9.986;2023-04-25T14:28:02;10.90;99.90
5588;DHT22;2816;49.778;9.986;2023-04-25T14:30:29;11.00;99.90
5588;DHT22;2816;49.778;9.986;2023-04-25T14:32:56;11.00;99.90
5588;DHT22;2816;49.778;9.986;2023-04-25T14:35:23;11.00;99.90
5588;DHT22;2816;49.778;9.986;2023-04-25T14:37:51;11.10;99.90
5588;DHT22;2816;49.778;9.986;2023-04-25T14:40:19;11.30;99.40
5588;DHT22;2816;49.778;9.986;2023-04-25T14:42:48;11.40;98.80
5588;DHT22;2816;49.778;9.986;2023-04-25T14:45:15;11.10;98.60
5588;DHT22;2816;49.778;9.986;2023-04-25T14:47:42;11.10;98.70
5588;DHT22;2816;49.778;9.986;2023-04-25T14:50:10;11.20;98.50
5588;DHT22;2816;49.778;9.986;2023-04-25T14:52:37;11.30;99.20
5588;DHT22;2816;49.778;9.986;2023-04-25T14:55:05;11.20;99.40
5588;DHT22;2816;49.778;9.986;2023-04-25T14:57:33;11.20;98.50
5588;DHT22;2816;49.778;9.986;2023-04-25T15:00:00;11.10;98.50
5588;DHT22;2816;49.778;9.986;2023-04-25T15:02:27;11.20;99.80
5588;DHT22;2816;49.778;9.986;2023-04-25T15:04:54;11.10;99.40
5588;DHT22;2816;49.778;9.986;2023-04-25T15:07:22;11.10;98.60
5588;DHT22;2816;49.778;9.986;2023-04-25T15:09:49;11.10;98.90
5588;DHT22;2816;49.778;9.986;2023-04-25T15:12:17;11.30;99.90
5588;DHT22;2816;49.778;9.986;2023-04-25T15:14:44;11.30;98.30
5588;DHT22;2816;49.778;9.986;2023-04-25T15:17:11;11.40;98.70
5588;DHT22;2816;49.778;9.986;2023-04-25T15:19:39;11.10;97.70
5588;DHT22;2816;49.778;9.986;2023-04-25T15:22:06;11.00;97.80
5588;DHT22;2816;49.778;9.986;2023-04-25T15:24:33;11.10;98.70
5588;DHT22;2816;49.778;9.986;2023-04-25T15:27:00;11.30;98.70
5588;DHT22;2816;49.778;9.986;2023-04-25T15:29:29;11.10;97.70
5588;DHT22;2816;49.778;9.986;2023-04-25T15:31:56;11.10;98.50
5588;DHT22;2816;49.778;9.986;2023-04-25T15:34:23;11.10;99.70
5588;DHT22;2816;49.778;9.986;2023-04-25T15:36:50;11.10;99.20
5588;DHT22;2816;49.778;9.986;2023-04-25T15:39:17;11.10;97.70
5588;DHT22;2816;49.778;9.986;2023-04-25T15:41:44;11.20;96.50
5588;DHT22;2816;49.778;9.986;2023-04-25T15:44:11;11.20;96.20
5588;DHT22;2816;49.778;9.986;2023-04-25T15:46:39;11.10;95.80
5588;DHT22;2816;49.778;9.986;2023-04-25T15:49:06;11.20;95.90
5588;DHT22;2816;49.778;9.986;2023-04-25T15:51:34;11.20;95.70
5588;DHT22;2816;49.778;9.986;2023-04-25T15:54:01;11.00;95.90
5588;DHT22;2816;49.778;9.986;2023-04-25T15:56:28;11.10;96.20
5588;DHT22;2816;49.778;9.986;2023-04-25T15:58:55;11.20;97.40
5588;DHT22;2816;49.778;9.986;2023-04-25T16:01:22;11.10;96.90
5588;DHT22;2816;49.778;9.986;2023-04-25T16:03:52;11.00;96.60
5588;DHT22;2816;49.778;9.986;2023-04-25T16:06:18;11.10;98.60
5588;DHT22;2816;49.778;9.986;2023-04-25T16:08:45;11.10;96.70
5588;DHT22;2816;49.778;9.986;2023-04-25T16:11:12;11.10;97.40
5588;DHT22;2816;49.778;9.986;2023-04-25T16:13:39;11.20;96.80